Time;durP1;ratioP1;P1;durP2;ratioP2;P2;SDS_P1;SDS_P2;PMS_P1;PMS_P2;Temp;Humidity;BMP_temperature;BMP_pressure;BME280_temperature;BME280_humidity;BME280_pressure;Samples;Min_cycle;Max_cycle;Signal;HPM_P1;HPM_P2
2023/11/04 00:01:25;;;;;;;4.25;1.67;;;;;;;10.05;40.04;98457.00;4988551;28;20069;-83
2023/11/04 00:03:53;;;;;;;4.10;1.55;;;;;;;10.04;40.23;98452.56;5016292;28;20911;-83
2023/11/04 00:06:23;;;;;;;4.00;1.55;;;;;;;10.04;40.37;98452.56;5004231;28;20050;-82
2023/11/04 00:08:52;;;;;;;2.67;1.48;;;;;;;10.03;40.27;98450.88;5001600;28;20051;-83
2023/11/04 00:11:20;;;;;;;3.20;1.40;;;;;;;10.03;40.58;98456.34;4999807;28;20041;-82
2023/11/04 00:13:48;;;;;;;3.05;1.20;;;;;;;10.04;40.40;98454.47;5024366;28;20065;-84
2023/11/04 00:16:18;;;;;;;3.30;1.40;;;;;;;10.04;40.27;98455.31;4993481;28;20748;-84
2023/11/04 00:18:46;;;;;;;1.70;1.02;;;;;;;10.03;40.69;98447.28;5017174;28;20046;-85
2023/11/04 00:21:14;;;;;;;2.20;1.25;;;;;;;10.02;40.66;98449.19;4990891;28;20737;-85
2023/11/04 00:23:43;;;;;;;2.10;0.98;;;;;;;10.01;40.60;98443.91;5012392;28;20046;-84
2023/11/04 00:26:11;;;;;;;2.15;1.00;;;;;;;9.99;40.58;98443.25;4989208;28;20065;-82
2023/11/04 00:28:44;;;;;;;;;;;;;;;9.76;41.04;98432.41;4992179;28;20077;-84
2023/11/04 00:31:12;;;;;;;2.25;0.93;;;;;;;9.94;40.49;98437.50;4995711;28;19945;-83
2023/11/04 00:33:42;;;;;;;3.60;1.10;;;;;;;9.98;40.61;98433.38;5001002;28;20050;-82
2023/11/04 00:36:10;;;;;;;2.20;1.10;;;;;;;9.97;40.38;98421.59;4993476;28;20085;-83
2023/11/04 00:38:38;;;;;;;3.35;1.20;;;;;;;9.97;40.49;98429.78;5013624;28;20102;-84
2023/11/04 00:41:06;;;;;;;2.35;0.90;;;;;;;9.99;40.61;98427.69;5006529;28;20474;-85
2023/11/04 00:43:36;;;;;;;2.42;1.10;;;;;;;10.00;40.48;98426.66;5010999;28;20093;-83
2023/11/04 00:46:08;;;;;;;2.55;1.10;;;;;;;10.02;40.58;98427.31;4980564;28;20591;-85
2023/11/04 00:48:39;;;;;;;1.88;0.98;;;;;;;10.01;40.41;98419.31;4983300;28;20042;-85
2023/11/04 00:51:09;;;;;;;1.55;0.90;;;;;;;10.02;40.72;98430.06;4984648;28;20074;-84
2023/11/04 00:53:37;;;;;;;1.55;0.80;;;;;;;10.01;40.49;98428.34;5010517;28;20564;-85
2023/11/04 00:56:06;;;;;;;2.22;0.90;;;;;;;10.03;40.61;98433.63;4984200;28;20054;-85
2023/11/04 00:58:34;;;;;;;1.65;0.77;;;;;;;10.03;40.61;98417.25;4984357;28;20054;-85
2023/11/04 01:01:02;;;;;;;1.67;0.90;;;;;;;10.02;40.55;98427.31;5010091;28;20348;-85
2023/11/04 01:03:30;;;;;;;1.50;0.82;;;;;;;10.00;40.08;98417.59;4985008;28;20506;-85
2023/11/04 01:05:59;;;;;;;2.17;0.80;;;;;;;10.01;40.45;98420.16;4984827;28;20057;-86
2023/11/04 01:08:28;;;;;;;0.80;0.60;;;;;;;10.04;40.40;98417.06;5008386;28;20062;-85
2023/11/04 01:10:57;;;;;;;1.55;0.77;;;;;;;10.00;40.05;98423.06;4987904;28;20576;-86
2023/11/04 01:13:25;;;;;;;1.23;0.88;;;;;;;10.01;40.08;98417.41;5024370;28;20046;-86
2023/11/04 01:15:54;;;;;;;2.28;0.80;;;;;;;10.01;40.38;98416.56;5027273;28;20042;-86
2023/11/04 01:18:22;;;;;;;1.30;0.60;;;;;;;10.03;40.65;98422.69;4992677;28;20530;-85
2023/11/04 01:20:50;;;;;;;0.85;0.50;;;;;;;10.01;40.52;98414.69;5002389;28;20054;-85
2023/11/04 01:23:19;;;;;;;0.95;0.50;;;;;;;10.03;40.47;98414.50;5013882;28;20038;-85
2023/11/04 01:25:48;;;;;;;1.27;0.65;;;;;;;10.05;40.29;98409.72;4994062;28;20043;-84
2023/11/04 01:28:16;;;;;;;0.40;0.40;;;;;;;10.04;40.51;98413.47;4995204;28;20093;-84
2023/11/04 01:30:45;;;;;;;0.75;0.57;;;;;;;10.04;40.05;98408.00;4985189;28;20470;-86
2023/11/04 01:33:14;;;;;;;2.78;0.60;;;;;;;10.03;40.23;98398.09;4982688;28;20061;-84
2023/11/04 01:35:42;;;;;;;1.60;0.40;;;;;;;10.03;40.35;98409.03;4982835;28;20785;-84
2023/11/04 01:38:10;;;;;;;1.48;0.70;;;;;;;10.02;40.14;98413.66;4985723;28;20069;-84
2023/11/04 01:40:38;;;;;;;1.20;0.60;;;;;;;10.00;39.98;98406.69;4986751;28;20117;-84
2023/11/04 01:43:08;;;;;;;1.25;0.73;;;;;;;10.00;40.19;98401.22;5011168;28;20082;-84
2023/11/04 01:45:36;;;;;;;1.95;0.60;;;;;;;10.02;40.35;98404.59;4983453;28;20048;-84
2023/11/04 01:48:07;;;;;;;0.95;0.40;;;;;;;10.00;40.43;98401.22;4984085;28;20133;-84
2023/11/04 01:50:44;;;;;;;0.75;0.47;;;;;;;10.00;40.15;98401.22;5005975;28;20051;-85
2023/11/04 01:53:14;;;;;;;1.08;0.50;;;;;;;9.99;40.51;98397.63;4981720;28;20058;-84
2023/11/04 01:55:43;;;;;;;1.42;0.60;;;;;;;10.00;40.27;98393.88;4984313;28;20405;-85
2023/11/04 01:58:16;;;;;;;1.20;0.43;;;;;;;10.01;40.42;98395.56;4982681;28;20047;-85
2023/11/04 02:00:44;;;;;;;1.88;0.40;;;;;;;10.00;40.26;98387.56;5006635;28;20514;-85
2023/11/04 02:03:13;;;;;;;0.60;0.43;;;;;;;9.99;40.36;98385.88;4980156;28;20892;-85
2023/11/04 02:05:41;;;;;;;0.30;0.30;;;;;;;9.98;40.69;98379.56;4985164;28;20789;-85
2023/11/04 02:08:09;;;;;;;0.88;0.30;;;;;;;10.00;40.12;98374.75;4982777;28;20088;-84
2023/11/04 02:10:38;;;;;;;1.80;0.50;;;;;;;9.97;40.16;98374.28;4983635;28;20061;-86
2023/11/04 02:13:06;;;;;;;0.98;0.50;;;;;;;9.99;40.41;98369.50;4980117;28;20043;-86
2023/11/04 02:15:36;;;;;;;0.52;0.43;;;;;;;10.00;40.12;98369.28;4983304;28;20313;-85
2023/11/04 02:18:04;;;;;;;0.55;0.50;;;;;;;9.96;40.22;98373.44;5007766;28;20074;-84
2023/11/04 02:20:34;;;;;;;0.60;0.50;;;;;;;9.98;40.34;98373.25;4983654;28;20047;-84
2023/11/04 02:23:03;;;;;;;0.68;0.60;;;;;;;9.99;40.30;98370.31;4982657;28;20325;-85
2023/11/04 02:25:32;;;;;;;0.40;0.38;;;;;;;9.98;40.34;98365.91;5010140;28;20106;-85
2023/11/04 02:28:00;;;;;;;0.68;0.40;;;;;;;9.96;40.32;98367.97;4984758;28;20057;-84
2023/11/04 02:30:29;;;;;;;1.00;0.60;;;;;;;9.97;40.36;98363.34;5007602;28;20117;-85
2023/11/04 02:32:57;;;;;;;0.57;0.40;;;;;;;9.96;40.27;98361.66;4979806;28;20053;-86
2023/11/04 02:35:25;;;;;;;1.73;0.60;;;;;;;9.93;40.61;98356.56;4982929;28;20053;-86
2023/11/04 02:37:54;;;;;;;0.80;0.50;;;;;;;9.94;40.52;98352.81;5008751;28;20116;-86
2023/11/04 02:40:23;;;;;;;0.43;0.43;;;;;;;9.95;40.08;98357.22;5007000;28;20058;-86
2023/11/04 02:42:52;;;;;;;0.40;0.40;;;;;;;9.92;40.29;98355.72;4982179;28;20077;-86
2023/11/04 02:45:20;;;;;;;0.60;0.50;;;;;;;9.93;40.50;98357.41;4981128;28;20054;-86
2023/11/04 02:47:48;;;;;;;0.50;0.50;;;;;;;9.93;40.44;98351.94;4995206;28;20050;-86
2023/11/04 02:50:16;;;;;;;0.85;0.50;;;;;;;9.93;40.39;98351.09;4999998;28;20106;-83
2023/11/04 02:52:45;;;;;;;0.40;0.40;;;;;;;9.92;40.29;98339.31;5007897;28;20131;-85
2023/11/04 02:55:13;;;;;;;1.08;0.40;;;;;;;9.91;40.59;98337.63;4986728;28;20133;-86
2023/11/04 02:57:42;;;;;;;0.40;0.40;;;;;;;9.94;40.35;98342.72;5013756;28;20054;-85
2023/11/04 03:00:12;;;;;;;0.40;0.40;;;;;;;9.94;40.60;98345.47;4994383;28;20038;-85
2023/11/04 03:02:40;;;;;;;1.73;0.50;;;;;;;9.93;40.37;98337.44;5016711;28;20084;-87
2023/11/04 03:05:09;;;;;;;0.43;0.40;;;;;;;9.92;40.45;98347.53;4996622;28;20050;-86
2023/11/04 03:07:37;;;;;;;1.23;0.40;;;;;;;9.91;40.48;98336.78;4989037;28;20047;-86
2023/11/04 03:10:05;;;;;;;1.27;0.52;;;;;;;9.91;40.58;98328.59;4984466;28;20054;-85
2023/11/04 03:12:33;;;;;;;1.10;0.50;;;;;;;9.90;40.34;98326.91;4984254;28;20100;-85
2023/11/04 03:15:03;;;;;;;1.48;0.50;;;;;;;9.90;40.42;98325.03;4998317;28;20043;-85
2023/11/04 03:17:31;;;;;;;0.82;0.40;;;;;;;9.90;40.35;98322.31;5008366;28;20050;-87
2023/11/04 03:19:58;;;;;;;1.20;0.60;;;;;;;9.89;40.71;98326.06;4982456;28;20696;-86
2023/11/04 03:22:26;;;;;;;2.00;0.60;;;;;;;9.87;40.57;98310.91;4984382;28;20081;-85
2023/11/04 03:24:54;;;;;;;0.50;0.50;;;;;;;9.89;40.62;98311.56;4984648;28;20812;-86
2023/11/04 03:27:23;;;;;;;1.30;0.60;;;;;;;9.90;40.35;98310.53;4984980;28;20746;-85
2023/11/04 03:29:52;;;;;;;1.00;0.60;;;;;;;9.90;40.45;98321.47;4982966;28;20047;-85
2023/11/04 03:32:22;;;;;;;0.60;0.40;;;;;;;9.90;40.79;98316.84;4982270;28;20806;-86
2023/11/04 03:34:50;;;;;;;1.70;0.60;;;;;;;9.88;40.79;98312.59;4982353;28;20109;-86
2023/11/04 03:37:18;;;;;;;2.08;0.70;;;;;;;9.86;40.58;98318.25;4988290;28;20061;-84
2023/11/04 03:39:46;;;;;;;0.98;0.70;;;;;;;9.89;40.66;98317.03;4988851;28;20042;-83
2023/11/04 03:42:16;;;;;;;2.05;0.70;;;;;;;9.87;40.54;98311.75;4986168;28;20165;-85
2023/11/04 03:44:45;;;;;;;2.97;0.50;;;;;;;9.84;40.55;98309.38;5002581;28;20069;-86
2023/11/04 03:47:13;;;;;;;1.52;0.75;;;;;;;9.88;41.17;98313.44;4986068;28;20062;-86
2023/11/04 03:49:43;;;;;;;0.93;0.60;;;;;;;9.86;41.11;98307.31;4986966;28;20062;-86
2023/11/04 03:52:11;;;;;;;1.58;0.50;;;;;;;9.86;41.18;98310.06;4984344;28;20046;-85
2023/11/04 03:54:39;;;;;;;1.73;0.70;;;;;;;9.86;41.00;98301.84;4983576;28;20219;-86
2023/11/04 03:57:07;;;;;;;1.33;0.70;;;;;;;9.87;41.10;98310.91;4989212;28;20121;-87
2023/11/04 03:59:35;;;;;;;1.55;0.80;;;;;;;9.88;41.10;98304.41;5016602;28;20137;-87
2023/11/04 04:02:04;;;;;;;1.00;0.65;;;;;;;9.88;41.15;98304.41;4992621;28;20129;-86
2023/11/04 04:04:32;;;;;;;1.58;0.70;;;;;;;9.87;41.31;98295.34;4998159;28;20058;-86
2023/11/04 04:07:01;;;;;;;2.08;0.70;;;;;;;9.88;41.08;98271.63;4996519;28;20057;-85
2023/11/04 04:09:30;;;;;;;0.77;0.60;;;;;;;9.85;41.17;98281.88;5026091;28;20054;-86
2023/11/04 04:11:58;;;;;;;1.58;0.80;;;;;;;9.87;41.00;98278.97;5001369;28;20074;-85
2023/11/04 04:14:26;;;;;;;1.42;0.90;;;;;;;9.89;41.64;98295.16;5000947;28;20180;-85
2023/11/04 04:16:54;;;;;;;0.98;0.70;;;;;;;9.90;41.39;98277.75;4999126;28;20061;-84
2023/11/04 04:19:22;;;;;;;1.27;0.60;;;;;;;9.89;41.15;98260.50;5000610;28;20164;-85
2023/11/04 04:21:51;;;;;;;1.42;0.60;;;;;;;9.91;41.68;98280.25;5001339;28;20182;-84
2023/11/04 04:24:20;;;;;;;0.50;0.50;;;;;;;9.91;41.61;98276.69;5007346;28;20042;-84
2023/11/04 04:26:49;;;;;;;1.63;0.60;;;;;;;9.90;41.81;98270.41;5036037;28;20161;-84
2023/11/04 04:29:17;;;;;;;0.70;0.43;;;;;;;9.90;41.18;98273.13;4996622;28;20054;-86
2023/11/04 04:31:45;;;;;;;1.73;0.55;;;;;;;9.89;41.84;98267.84;4987513;28;20128;-86
2023/11/04 04:34:13;;;;;;;1.38;0.70;;;;;;;9.90;41.49;98264.94;4988441;28;20046;-85
2023/11/04 04:36:41;;;;;;;0.82;0.50;;;;;;;9.90;41.59;98266.81;4990811;28;20081;-86
2023/11/04 04:39:09;;;;;;;0.85;0.50;;;;;;;9.90;41.49;98262.19;4995564;28;20043;-86
2023/11/04 04:44:29;;;;;;;0.90;0.60;;;;;;;9.89;41.63;98260.50;4992777;28;20046;-85
2023/11/04 04:46:57;;;;;;;1.50;0.75;;;;;;;9.89;41.88;98255.03;4992666;28;20395;-86
2023/11/04 04:49:26;;;;;;;1.95;0.70;;;;;;;9.89;41.81;98255.03;5014199;28;20752;-85
2023/11/04 04:51:54;;;;;;;0.93;0.57;;;;;;;9.90;41.69;98254.00;4986918;28;20077;-85
2023/11/04 04:54:22;;;;;;;1.83;0.60;;;;;;;9.88;42.10;98253.34;4986031;28;20050;-85
2023/11/04 04:56:51;;;;;;;1.40;0.80;;;;;;;9.92;41.59;98251.91;4985494;28;20050;-85
2023/11/04 04:59:19;;;;;;;2.40;0.73;;;;;;;9.87;41.95;98246.19;4987217;28;20058;-86
2023/11/04 05:01:47;;;;;;;1.33;0.60;;;;;;;9.90;41.88;98242.22;4994483;28;20620;-87
2023/11/04 05:04:16;;;;;;;1.02;0.50;;;;;;;9.91;42.10;98252.09;4994786;28;20077;-86
2023/11/04 05:06:44;;;;;;;1.65;0.60;;;;;;;9.88;41.95;98247.03;4993144;28;20130;-87
2023/11/04 05:09:12;;;;;;;1.63;0.52;;;;;;;9.89;42.16;98244.13;4990362;28;20474;-87
2023/11/04 05:11:40;;;;;;;1.70;0.80;;;;;;;9.87;42.16;98234.41;4988445;28;20442;-85
2023/11/04 05:14:10;;;;;;;0.75;0.60;;;;;;;9.92;42.06;98232.78;4987270;28;20050;-87
2023/11/04 05:16:38;;;;;;;1.05;0.60;;;;;;;9.87;42.15;98216.13;4988192;28;20549;-86
2023/11/04 05:19:06;;;;;;;0.80;0.70;;;;;;;9.89;41.98;98221.41;5012230;28;20047;-86
2023/11/04 05:21:34;;;;;;;0.88;0.43;;;;;;;9.88;41.72;98226.03;4988137;28;20141;-85
2023/11/04 05:24:03;;;;;;;0.70;0.47;;;;;;;9.86;42.33;98211.72;4986894;28;20055;-85
2023/11/04 05:26:31;;;;;;;1.45;0.60;;;;;;;9.90;42.15;98218.50;4987782;28;20050;-87
2023/11/04 05:28:59;;;;;;;0.93;0.52;;;;;;;9.87;42.34;98204.34;4986290;28;20489;-87
2023/11/04 05:31:31;;;;;;;0.95;0.50;;;;;;;9.87;42.30;98194.28;4988094;28;20089;-86
2023/11/04 05:33:59;;;;;;;1.08;0.60;;;;;;;9.87;41.97;98190.69;4988742;28;20050;-85
2023/11/04 05:36:27;;;;;;;1.00;0.60;;;;;;;9.88;41.95;98192.41;5013468;28;20058;-85
2023/11/04 05:38:56;;;;;;;1.10;0.68;;;;;;;9.85;42.05;98191.72;4986132;28;20093;-85
2023/11/04 05:41:23;;;;;;;1.13;0.70;;;;;;;9.88;42.47;98189.66;4985499;28;20173;-86
2023/11/04 05:43:52;;;;;;;1.70;0.60;;;;;;;9.87;42.30;98183.34;5013335;28;20133;-86
2023/11/04 05:46:21;;;;;;;1.45;0.60;;;;;;;9.85;42.29;98196.34;4981648;28;20447;-86
2023/11/04 05:48:51;;;;;;;1.73;0.70;;;;;;;9.89;42.31;98188.63;4989268;28;20047;-85
2023/11/04 05:51:25;;;;;;;0.85;0.63;;;;;;;9.86;42.38;98187.13;4968944;28;20061;-87
2023/11/04 05:53:54;;;;;;;1.85;0.70;;;;;;;9.85;42.73;98201.81;4971988;28;20110;-87
2023/11/04 05:56:22;;;;;;;1.13;0.60;;;;;;;9.83;42.11;98196.53;4993043;28;20050;-85
2023/11/04 05:58:51;;;;;;;0.98;0.65;;;;;;;9.84;42.66;98205.59;4988233;28;20071;-84
2023/11/04 06:01:24;;;;;;;1.05;0.50;;;;;;;9.85;42.99;98180.81;5006462;28;20065;-85
2023/11/04 06:03:53;;;;;;;;;;;;;;;9.61;43.40;98183.06;4998163;28;20534;-86
2023/11/04 06:06:22;;;;;;;1.48;0.60;;;;;;;9.77;42.49;98189.13;5001992;28;20130;-86
2023/11/04 06:08:50;;;;;;;1.85;0.80;;;;;;;9.84;42.33;98167.34;4981614;28;20054;-86
2023/11/04 06:11:19;;;;;;;1.02;0.52;;;;;;;9.83;42.67;98168.38;4970174;28;20580;-85
2023/11/04 06:13:53;;;;;;;;;;;;;;;9.59;43.28;98163.28;5012576;28;20050;-86
2023/11/04 06:16:21;;;;;;;0.65;0.50;;;;;;;9.77;42.97;98156.34;4988826;28;19922;-86
2023/11/04 06:18:49;;;;;;;1.00;0.60;;;;;;;9.80;42.84;98147.78;4993131;28;20039;-87
2023/11/04 06:21:19;;;;;;;1.00;0.40;;;;;;;9.80;42.57;98131.41;4971938;28;20131;-87
2023/11/04 06:23:46;;;;;;;0.60;0.45;;;;;;;9.80;42.67;98139.59;4975399;28;20603;-86
2023/11/04 06:26:22;;;;;;;1.30;0.60;;;;;;;9.83;43.21;98141.06;4985134;28;20542;-84
2023/11/04 06:28:50;;;;;;;1.15;0.70;;;;;;;9.80;42.74;98136.84;5000198;28;20061;-84
2023/11/04 06:31:21;;;;;;;4.28;1.10;;;;;;;9.81;42.91;98134.97;4983872;28;20161;-85
2023/11/04 06:33:50;;;;;;;1.13;0.70;;;;;;;9.79;43.08;98124.25;4982763;28;20057;-85
2023/11/04 06:36:19;;;;;;;2.08;0.80;;;;;;;9.83;43.02;98130.13;5000814;28;20050;-85
2023/11/04 06:38:48;;;;;;;1.60;1.13;;;;;;;9.83;42.77;98130.13;4991231;28;20644;-85
2023/11/04 06:41:17;;;;;;;1.05;0.70;;;;;;;9.83;43.10;98119.22;4956811;28;20043;-85
2023/11/04 06:43:46;;;;;;;1.88;0.70;;;;;;;9.81;42.88;98111.22;5010713;28;20054;-86
2023/11/04 06:46:16;;;;;;;2.03;0.70;;;;;;;9.80;43.00;98115.00;5006585;28;20512;-86
2023/11/04 06:52:38;;;;;;;1.45;0.75;;;;;;;9.76;43.37;98124.63;5007426;28;20054;-86
2023/11/04 06:55:07;;;;;;;2.00;0.80;;;;;;;9.77;43.00;98123.56;4982944;28;20559;-87
2023/11/04 06:57:35;;;;;;;1.27;0.70;;;;;;;9.77;43.17;98123.56;4985499;28;20073;-85
2023/11/04 07:00:04;;;;;;;1.98;0.90;;;;;;;9.77;43.32;98118.13;4971528;28;20125;-87
2023/11/04 07:02:33;;;;;;;1.52;0.70;;;;;;;9.78;43.19;98117.06;5008238;28;20078;-85
2023/11/04 07:05:01;;;;;;;1.38;0.80;;;;;;;9.79;43.11;98115.19;4982698;28;20050;-86
2023/11/04 07:07:30;;;;;;;1.60;0.70;;;;;;;9.79;43.32;98116.03;4983577;28;20129;-85
2023/11/04 07:09:59;;;;;;;1.50;0.90;;;;;;;9.82;43.21;98112.91;5008701;28;20043;-85
2023/11/04 07:12:28;;;;;;;1.65;0.80;;;;;;;9.79;43.47;98098.81;4962052;28;20062;-86
2023/11/04 07:14:56;;;;;;;1.98;0.90;;;;;;;9.80;43.49;98101.34;4995610;28;20042;-86
2023/11/04 07:17:24;;;;;;;1.33;0.70;;;;;;;9.78;43.40;98087.03;4986580;28;20050;-85
2023/11/04 07:19:52;;;;;;;1.58;0.80;;;;;;;9.78;43.54;98084.31;4992771;28;20043;-85
2023/11/04 07:22:22;;;;;;;1.58;0.80;;;;;;;9.77;43.33;98074.41;4994338;28;20072;-86
2023/11/04 07:24:50;;;;;;;2.13;0.80;;;;;;;9.77;43.21;98073.56;4992826;28;20038;-85
2023/11/04 07:27:19;;;;;;;2.45;0.80;;;;;;;9.75;43.69;98079.22;4996231;28;20490;-87
2023/11/04 07:29:47;;;;;;;1.98;0.70;;;;;;;9.77;43.60;98076.31;4968404;28;20038;-85
2023/11/04 07:32:15;;;;;;;2.08;0.80;;;;;;;9.76;43.58;98089.09;5006814;28;20038;-86
2023/11/04 07:34:43;;;;;;;1.13;0.60;;;;;;;9.75;43.41;98084.69;4999129;28;20050;-86
2023/11/04 07:37:13;;;;;;;1.92;0.85;;;;;;;9.75;43.96;98087.41;5021155;28;20288;-86
2023/11/04 07:39:41;;;;;;;1.23;0.73;;;;;;;9.73;43.91;98067.66;4999903;28;20050;-87
2023/11/04 07:42:10;;;;;;;2.33;0.88;;;;;;;9.75;43.87;98073.75;4986866;28;20130;-86
2023/11/04 07:44:40;;;;;;;2.35;1.10;;;;;;;9.74;43.77;98063.06;5004797;28;20058;-84
2023/11/04 07:47:09;;;;;;;1.63;0.80;;;;;;;9.71;43.88;98050.63;5005534;28;20049;-86
2023/11/04 07:49:40;;;;;;;2.60;0.80;;;;;;;9.75;43.88;98048.34;4986453;28;20054;-85
2023/11/04 07:52:10;;;;;;;1.42;0.68;;;;;;;9.73;44.24;98044.97;5012033;28;20061;-85
2023/11/04 07:54:40;;;;;;;1.23;0.75;;;;;;;9.73;43.88;98036.78;5014749;28;20784;-86
2023/11/04 07:57:20;;;;;;;1.48;0.75;;;;;;;9.73;44.19;98042.25;4990427;28;20702;-86
2023/11/04 07:59:55;;;;;;;0.40;0.40;;;;;;;9.74;44.62;98031.09;5000074;28;20587;-85
2023/11/04 08:02:24;;;;;;;0.90;0.65;;;;;;;9.73;44.20;98034.91;4979102;28;20069;-85
2023/11/04 08:04:52;;;;;;;1.45;0.73;;;;;;;9.76;44.29;98034.47;4999131;28;20042;-85
2023/11/04 08:07:20;;;;;;;2.53;0.90;;;;;;;9.76;44.40;98028.19;4986219;28;20073;-85
2023/11/04 08:09:49;;;;;;;1.92;0.95;;;;;;;9.76;44.69;98025.44;4982169;28;20074;-85
2023/11/04 08:12:19;;;;;;;2.53;0.90;;;;;;;9.76;44.74;98023.56;4985983;28;20051;-86
2023/11/04 08:14:47;;;;;;;1.65;1.00;;;;;;;9.79;44.68;98022.31;4969096;28;20054;-84
2023/11/04 08:17:17;;;;;;;2.63;0.80;;;;;;;9.81;44.83;98014.78;4999709;28;20054;-84
2023/11/04 08:19:45;;;;;;;2.13;0.90;;;;;;;9.82;44.93;98017.28;4997522;28;20160;-84
2023/11/04 08:22:15;;;;;;;4.22;0.90;;;;;;;9.82;44.75;98011.00;4978354;28;20062;-85
2023/11/04 08:24:43;;;;;;;1.60;0.70;;;;;;;9.83;44.65;98008.06;4969761;28;20113;-85
2023/11/04 08:27:12;;;;;;;2.13;0.80;;;;;;;9.80;45.22;98003.03;4971117;28;20050;-85
2023/11/04 08:29:41;;;;;;;1.90;0.70;;;;;;;9.83;45.31;97991.66;4970685;28;20117;-86
2023/11/04 08:32:09;;;;;;;1.50;0.60;;;;;;;9.85;44.64;97991.47;4970975;28;20130;-85
2023/11/04 08:34:38;;;;;;;2.85;0.70;;;;;;;9.87;45.00;97989.41;4970597;28;20487;-85
2023/11/04 08:37:07;;;;;;;1.73;0.70;;;;;;;9.85;45.23;97986.00;4970206;28;20065;-86
2023/11/04 08:39:36;;;;;;;1.50;0.90;;;;;;;9.87;45.09;97974.91;4975414;28;20038;-84
2023/11/04 08:42:06;;;;;;;2.33;1.10;;;;;;;9.85;45.33;97959.53;4978124;28;20062;-86
2023/11/04 08:44:34;;;;;;;1.52;0.80;;;;;;;9.85;45.16;97965.00;4997925;28;20625;-85
2023/11/04 08:47:04;;;;;;;1.83;0.70;;;;;;;9.89;45.21;97950.97;4981479;28;20051;-85
2023/11/04 08:49:33;;;;;;;1.98;0.80;;;;;;;9.85;44.98;97937.69;4995636;28;20076;-86
2023/11/04 08:52:04;;;;;;;1.17;0.70;;;;;;;9.90;45.45;97950.78;4978368;28;20402;-85
2023/11/04 08:54:32;;;;;;;2.35;0.80;;;;;;;9.89;45.33;97937.31;4990016;28;20046;-86
2023/11/04 08:57:04;;;;;;;1.00;0.63;;;;;;;9.91;45.16;97916.06;4971992;28;20562;-86
2023/11/04 08:59:34;;;;;;;1.95;1.02;;;;;;;9.93;45.26;97914.00;4978037;28;20047;-86
2023/11/04 09:02:02;;;;;;;0.82;0.60;;;;;;;9.93;45.46;97917.56;4962002;28;20047;-85
2023/11/04 09:04:30;;;;;;;1.00;0.70;;;;;;;9.96;45.30;97911.72;4982699;28;20529;-86
2023/11/04 09:06:59;;;;;;;0.90;0.70;;;;;;;9.99;45.43;97892.16;4982309;28;20042;-84
2023/11/04 09:09:29;;;;;;;2.08;0.80;;;;;;;10.00;45.50;97895.75;5008105;28;20050;-84
2023/11/04 09:11:58;;;;;;;2.78;0.90;;;;;;;10.00;45.28;97896.56;5019351;28;20046;-85
2023/11/04 09:14:26;;;;;;;2.20;0.90;;;;;;;10.04;45.25;97891.56;4998921;28;20054;-86
2023/11/04 09:16:54;;;;;;;1.55;0.77;;;;;;;10.07;45.12;97892.00;4984668;28;21189;-84
2023/11/04 09:19:24;;;;;;;1.80;0.70;;;;;;;10.07;45.12;97893.91;4985609;28;20703;-84
2023/11/04 09:21:59;;;;;;;1.40;0.70;;;;;;;10.08;45.35;97884.63;4984811;28;20917;-85
2023/11/04 09:24:33;;;;;;;1.15;0.80;;;;;;;10.10;45.45;97888.84;4997526;28;20099;-84
2023/11/04 09:27:04;;;;;;;2.08;0.80;;;;;;;10.11;44.99;97876.03;4994023;28;20074;-83
2023/11/04 09:29:38;;;;;;;1.45;0.80;;;;;;;10.12;45.28;97881.31;4989246;28;20054;-83
2023/11/04 09:32:09;;;;;;;2.05;0.95;;;;;;;10.14;44.99;97887.41;5012016;28;20050;-84
2023/11/04 09:34:43;;;;;;;2.10;0.82;;;;;;;10.17;45.26;97873.31;4995038;28;20534;-85
2023/11/04 09:37:18;;;;;;;1.80;1.10;;;;;;;10.17;45.43;97875.22;4987151;28;20149;-84
2023/11/04 09:39:49;;;;;;;2.10;0.98;;;;;;;10.16;45.69;97870.78;4983395;28;20054;-83
2023/11/04 09:42:17;;;;;;;2.38;1.10;;;;;;;10.22;45.50;97881.78;4971627;28;20057;-83
2023/11/04 09:44:45;;;;;;;2.08;1.10;;;;;;;10.23;45.82;97872.50;4970188;28;20671;-85
2023/11/04 09:47:14;;;;;;;2.03;1.10;;;;;;;10.29;45.48;97851.72;4972775;28;20051;-87
2023/11/04 09:49:43;;;;;;;1.63;1.05;;;;;;;10.32;45.88;97847.75;4989776;28;20053;-87
2023/11/04 09:52:13;;;;;;;1.70;0.90;;;;;;;10.38;45.36;97846.91;5012958;28;20081;-84
2023/11/04 09:54:45;;;;;;;1.75;1.20;;;;;;;10.42;45.65;97823.56;4986376;28;20049;-86
2023/11/04 09:57:16;;;;;;;2.75;1.08;;;;;;;10.46;45.28;97828.44;5010548;28;20050;-85
2023/11/04 09:59:44;;;;;;;2.65;1.00;;;;;;;10.49;45.53;97817.06;4985365;28;20054;-85
2023/11/04 10:02:13;;;;;;;2.47;1.00;;;;;;;10.51;44.88;97827.78;5011061;28;20058;-85
2023/11/04 10:04:42;;;;;;;1.45;0.90;;;;;;;10.57;45.04;97830.56;5012701;28;20817;-84
2023/11/04 10:07:17;;;;;;;2.05;0.90;;;;;;;10.63;44.94;97814.41;4979304;28;20049;-86
2023/11/04 10:09:48;;;;;;;2.50;0.95;;;;;;;10.63;44.93;97815.25;4996590;28;20055;-87
2023/11/04 10:12:23;;;;;;;2.28;0.80;;;;;;;10.69;44.48;97806.19;4990476;28;20054;-86
2023/11/04 10:14:54;;;;;;;2.22;1.00;;;;;;;10.69;44.81;97794.41;4991340;28;20047;-87
2023/11/04 10:17:34;;;;;;;2.20;1.17;;;;;;;10.71;44.45;97806.00;4969213;28;20262;-87
2023/11/04 10:20:07;;;;;;;1.67;1.00;;;;;;;10.73;44.22;97793.75;4983435;28;21198;-86
2023/11/04 10:22:35;;;;;;;2.58;1.23;;;;;;;10.76;44.80;97792.50;4988259;28;20124;-86
2023/11/04 10:25:07;;;;;;;1.98;1.08;;;;;;;10.82;44.41;97789.78;4986261;28;20434;-85
2023/11/04 10:27:37;;;;;;;2.35;1.00;;;;;;;10.81;44.31;97774.41;5011355;28;20050;-85
2023/11/04 10:30:06;;;;;;;1.30;0.77;;;;;;;10.85;44.09;97769.38;4974951;28;20051;-84
2023/11/04 10:32:36;;;;;;;3.03;0.98;;;;;;;10.86;44.27;97760.97;4984021;28;20042;-84
2023/11/04 10:35:11;;;;;;;2.00;0.90;;;;;;;10.89;44.13;97759.69;4977500;28;20499;-84
2023/11/04 10:37:44;;;;;;;2.35;0.90;;;;;;;10.88;43.68;97749.81;4987713;28;20042;-86
2023/11/04 10:40:14;;;;;;;2.33;1.00;;;;;;;10.89;44.32;97737.81;4991740;28;20051;-86
2023/11/04 10:42:49;;;;;;;2.35;0.90;;;;;;;10.87;44.08;97718.88;4980307;28;20069;-86
2023/11/04 10:45:21;;;;;;;1.45;0.90;;;;;;;10.90;44.12;97720.31;5019361;28;20050;-83
2023/11/04 10:48:00;;;;;;;2.10;1.10;;;;;;;10.88;44.10;97717.81;4998760;28;20047;-83
2023/11/04 10:50:44;;;;;;;3.95;1.10;;;;;;;10.88;44.09;97706.88;5002910;28;20341;-83
2023/11/04 10:53:25;;;;;;;2.35;1.10;;;;;;;10.87;44.11;97690.66;5010240;28;20074;-83
2023/11/04 10:56:04;;;;;;;1.75;1.00;;;;;;;10.91;43.55;97683.69;4989248;28;20054;-85
2023/11/04 10:58:42;;;;;;;2.92;1.02;;;;;;;10.90;43.60;97682.00;4983615;28;20106;-85
2023/11/04 11:01:12;;;;;;;2.67;1.08;;;;;;;10.89;43.85;97669.41;5013533;28;20095;-82
2023/11/04 11:03:42;;;;;;;3.22;1.00;;;;;;;10.89;43.78;97659.31;5007895;28;20065;-86
2023/11/04 11:06:11;;;;;;;2.97;1.10;;;;;;;10.86;43.51;97650.69;5024114;28;20062;-85
2023/11/04 11:08:42;;;;;;;3.72;1.00;;;;;;;10.89;43.54;97636.59;4997544;28;21083;-85
2023/11/04 11:11:17;;;;;;;3.05;1.25;;;;;;;10.90;43.72;97635.50;5022315;28;20116;-85
2023/11/04 11:13:51;;;;;;;2.70;1.20;;;;;;;10.90;43.35;97621.81;5020073;28;20073;-85
2023/11/04 11:16:19;;;;;;;3.28;1.20;;;;;;;10.86;43.69;97613.22;4993510;28;20403;-82
2023/11/04 11:18:47;;;;;;;2.50;1.25;;;;;;;10.85;43.45;97603.34;4991626;28;20052;-82
2023/11/04 11:21:15;;;;;;;2.42;1.20;;;;;;;10.86;44.00;97615.97;4980292;28;20484;-85
2023/11/04 11:23:43;;;;;;;2.78;1.60;;;;;;;10.84;43.88;97603.53;4995122;28;20162;-84
2023/11/04 11:26:13;;;;;;;4.63;1.48;;;;;;;10.84;44.18;97604.38;4993376;28;20304;-84
2023/11/04 11:29:07;;;;;;;3.45;1.48;;;;;;;10.82;44.93;97619.31;5004837;28;20089;-87
2023/11/04 11:31:42;;;;;;;4.32;1.25;;;;;;;10.74;44.53;97603.97;4972796;28;20047;-84
2023/11/04 11:34:13;;;;;;;4.60;1.27;;;;;;;10.74;44.60;97579.38;4975805;28;20141;-83
2023/11/04 11:36:44;;;;;;;2.20;1.23;;;;;;;10.74;44.80;97579.38;4967640;28;20396;-87
2023/11/04 11:39:17;;;;;;;2.55;1.20;;;;;;;10.69;44.52;97570.13;4991852;28;20298;-86
2023/11/04 11:42:03;;;;;;;3.20;1.15;;;;;;;10.67;44.52;97558.56;4978431;28;20498;-85
2023/11/04 11:50:30;;;;;;;3.20;1.20;;;;;;;10.45;45.43;97526.00;4925240;29;20055;-85
2023/11/04 11:53:11;;;;;;;3.53;1.20;;;;;;;10.46;45.65;97533.16;4993615;28;20085;-87
2023/11/04 11:55:42;;;;;;;2.05;1.10;;;;;;;10.40;45.47;97514.03;5002698;28;20051;-86
2023/11/04 11:58:13;;;;;;;1.92;1.10;;;;;;;10.34;45.43;97518.44;4976911;28;20070;-86
2023/11/04 12:00:51;;;;;;;2.42;1.05;;;;;;;10.36;46.06;97502.69;4985740;28;20060;-86
2023/11/04 12:03:26;;;;;;;2.47;1.15;;;;;;;10.30;45.85;97497.25;4954852;28;20529;-86